sensor_id;sensor_type;location;lat;lon;timestamp;P1;durP1;ratioP1;P2;durP2;ratioP2
9467;SDS011;4772;52.382;9.752;2023-04-24T00:00:43;1.30;;;1.20;;
9467;SDS011;4772;52.382;9.752;2023-04-24T00:03:10;0.90;;;0.90;;
9467;SDS011;4772;52.382;9.752;2023-04-24T00:05:36;1.00;;;0.90;;
9467;SDS011;4772;52.382;9.752;2023-04-24T00:08:02;1.40;;;1.20;;
9467;SDS011;4772;52.382;9.752;2023-04-24T00:10:28;1.10;;;1.00;;
9467;SDS011;4772;52.382;9.752;2023-04-24T00:12:54;0.90;;;0.90;;
9467;SDS011;4772;52.382;9.752;2023-04-24T00:15:20;1.07;;;0.90;;
9467;SDS011;4772;52.382;9.752;2023-04-24T00:17:46;1.27;;;1.17;;
9467;SDS011;4772;52.382;9.752;2023-04-24T00:20:12;0.90;;;0.90;;
9467;SDS011;4772;52.382;9.752;2023-04-24T00:22:39;1.07;;;0.97;;
9467;SDS011;4772;52.382;9.752;2023-04-24T00:25:05;1.03;;;0.93;;
9467;SDS011;4772;52.382;9.752;2023-04-24T00:27:31;1.00;;;0.80;;
9467;SDS011;4772;52.382;9.752;2023-04-24T00:29:57;2.00;;;1.23;;
9467;SDS011;4772;52.382;9.752;2023-04-24T00:32:23;1.17;;;0.97;;
9467;SDS011;4772;52.382;9.752;2023-04-24T00:34:49;1.20;;;1.00;;
9467;SDS011;4772;52.382;9.752;2023-04-24T00:37:15;1.20;;;1.10;;
9467;SDS011;4772;52.382;9.752;2023-04-24T00:39:41;0.97;;;0.97;;
9467;SDS011;4772;52.382;9.752;2023-04-24T00:42:07;1.20;;;1.10;;
9467;SDS011;4772;52.382;9.752;2023-04-24T00:44:33;1.80;;;1.10;;
9467;SDS011;4772;52.382;9.752;2023-04-24T00:46:59;0.93;;;0.93;;
9467;SDS011;4772;52.382;9.752;2023-04-24T00:49:26;1.27;;;1.00;;
9467;SDS011;4772;52.382;9.752;2023-04-24T00:51:52;1.10;;;1.10;;
9467;SDS011;4772;52.382;9.752;2023-04-24T00:54:18;1.00;;;1.00;;
9467;SDS011;4772;52.382;9.752;2023-04-24T00:56:45;1.53;;;1.10;;
9467;SDS011;4772;52.382;9.752;2023-04-24T00:59:16;1.53;;;1.20;;
9467;SDS011;4772;52.382;9.752;2023-04-24T01:01:43;1.13;;;0.90;;
9467;SDS011;4772;52.382;9.752;2023-04-24T01:04:09;1.37;;;1.20;;
9467;SDS011;4772;52.382;9.752;2023-04-24T01:06:37;1.20;;;1.10;;
9467;SDS011;4772;52.382;9.752;2023-04-24T01:09:04;1.30;;;1.10;;
9467;SDS011;4772;52.382;9.752;2023-04-24T01:11:30;1.60;;;1.10;;
9467;SDS011;4772;52.382;9.752;2023-04-24T01:13:56;1.43;;;1.00;;
9467;SDS011;4772;52.382;9.752;2023-04-24T01:16:23;1.00;;;1.00;;
9467;SDS011;4772;52.382;9.752;2023-04-24T01:18:49;1.00;;;1.00;;
9467;SDS011;4772;52.382;9.752;2023-04-24T01:21:16;1.27;;;1.10;;
9467;SDS011;4772;52.382;9.752;2023-04-24T01:23:43;1.67;;;1.10;;
9467;SDS011;4772;52.382;9.752;2023-04-24T01:26:09;1.20;;;1.20;;
9467;SDS011;4772;52.382;9.752;2023-04-24T01:28:35;1.10;;;1.00;;
9467;SDS011;4772;52.382;9.752;2023-04-24T01:31:01;1.67;;;1.17;;
9467;SDS011;4772;52.382;9.752;2023-04-24T01:33:27;1.40;;;1.30;;
9467;SDS011;4772;52.382;9.752;2023-04-24T01:35:53;1.43;;;1.10;;
9467;SDS011;4772;52.382;9.752;2023-04-24T01:38:19;1.27;;;1.13;;
9467;SDS011;4772;52.382;9.752;2023-04-24T01:40:46;1.60;;;1.10;;
9467;SDS011;4772;52.382;9.752;2023-04-24T01:43:12;1.50;;;1.00;;
9467;SDS011;4772;52.382;9.752;2023-04-24T01:45:38;1.13;;;1.10;;
9467;SDS011;4772;52.382;9.752;2023-04-24T01:48:04;1.40;;;1.30;;
9467;SDS011;4772;52.382;9.752;2023-04-24T01:50:30;1.90;;;1.20;;
9467;SDS011;4772;52.382;9.752;2023-04-24T01:52:56;1.57;;;1.43;;
9467;SDS011;4772;52.382;9.752;2023-04-24T01:55:22;2.00;;;1.20;;
9467;SDS011;4772;52.382;9.752;2023-04-24T01:57:48;1.17;;;1.17;;
9467;SDS011;4772;52.382;9.752;2023-04-24T02:00:15;1.10;;;1.10;;
9467;SDS011;4772;52.382;9.752;2023-04-24T02:02:41;1.30;;;1.00;;
9467;SDS011;4772;52.382;9.752;2023-04-24T02:05:08;1.67;;;1.20;;
9467;SDS011;4772;52.382;9.752;2023-04-24T02:07:34;1.50;;;1.17;;
9467;SDS011;4772;52.382;9.752;2023-04-24T02:10:00;0.90;;;0.90;;
9467;SDS011;4772;52.382;9.752;2023-04-24T02:12:26;1.70;;;0.93;;
9467;SDS011;4772;52.382;9.752;2023-04-24T02:14:52;1.13;;;1.03;;
9467;SDS011;4772;52.382;9.752;2023-04-24T02:17:18;1.00;;;1.00;;
9467;SDS011;4772;52.382;9.752;2023-04-24T02:19:44;1.90;;;1.40;;
9467;SDS011;4772;52.382;9.752;2023-04-24T02:22:11;1.40;;;1.30;;
9467;SDS011;4772;52.382;9.752;2023-04-24T02:24:37;0.90;;;0.90;;
9467;SDS011;4772;52.382;9.752;2023-04-24T02:27:03;1.07;;;1.00;;
9467;SDS011;4772;52.382;9.752;2023-04-24T02:29:32;0.90;;;0.90;;
9467;SDS011;4772;52.382;9.752;2023-04-24T02:31:58;1.20;;;1.10;;
9467;SDS011;4772;52.382;9.752;2023-04-24T02:34:24;0.90;;;0.90;;
9467;SDS011;4772;52.382;9.752;2023-04-24T02:36:53;1.13;;;1.03;;
9467;SDS011;4772;52.382;9.752;2023-04-24T02:39:19;1.63;;;1.30;;
9467;SDS011;4772;52.382;9.752;2023-04-24T02:41:45;1.13;;;1.10;;
9467;SDS011;4772;52.382;9.752;2023-04-24T02:44:11;1.27;;;1.20;;
9467;SDS011;4772;52.382;9.752;2023-04-24T02:46:37;1.50;;;1.30;;
9467;SDS011;4772;52.382;9.752;2023-04-24T02:49:03;1.40;;;1.30;;
9467;SDS011;4772;52.382;9.752;2023-04-24T02:51:29;1.20;;;1.10;;
9467;SDS011;4772;52.382;9.752;2023-04-24T02:53:55;1.03;;;1.00;;
9467;SDS011;4772;52.382;9.752;2023-04-24T02:56:21;1.30;;;1.20;;
9467;SDS011;4772;52.382;9.752;2023-04-24T02:58:47;1.10;;;1.10;;
9467;SDS011;4772;52.382;9.752;2023-04-24T03:01:13;1.30;;;1.20;;
9467;SDS011;4772;52.382;9.752;2023-04-24T03:03:40;1.50;;;1.13;;
9467;SDS011;4772;52.382;9.752;2023-04-24T03:06:06;1.17;;;1.10;;
9467;SDS011;4772;52.382;9.752;2023-04-24T03:08:33;1.20;;;1.10;;
9467;SDS011;4772;52.382;9.752;2023-04-24T03:10:59;1.90;;;1.10;;
9467;SDS011;4772;52.382;9.752;2023-04-24T03:13:25;0.97;;;0.93;;
9467;SDS011;4772;52.382;9.752;2023-04-24T03:15:51;2.30;;;1.10;;
9467;SDS011;4772;52.382;9.752;2023-04-24T03:18:17;0.90;;;0.90;;
9467;SDS011;4772;52.382;9.752;2023-04-24T03:20:46;1.00;;;1.00;;
9467;SDS011;4772;52.382;9.752;2023-04-24T03:23:12;0.97;;;0.97;;
9467;SDS011;4772;52.382;9.752;2023-04-24T03:25:38;1.93;;;1.10;;
9467;SDS011;4772;52.382;9.752;2023-04-24T03:28:04;1.10;;;1.00;;
9467;SDS011;4772;52.382;9.752;2023-04-24T03:30:30;1.33;;;0.90;;
9467;SDS011;4772;52.382;9.752;2023-04-24T03:32:56;1.00;;;1.00;;
9467;SDS011;4772;52.382;9.752;2023-04-24T03:35:22;3.83;;;1.10;;
9467;SDS011;4772;52.382;9.752;2023-04-24T03:37:48;1.07;;;0.97;;
9467;SDS011;4772;52.382;9.752;2023-04-24T03:40:14;1.47;;;1.30;;
9467;SDS011;4772;52.382;9.752;2023-04-24T03:42:40;1.17;;;1.07;;
9467;SDS011;4772;52.382;9.752;2023-04-24T03:45:06;1.20;;;1.10;;
9467;SDS011;4772;52.382;9.752;2023-04-24T03:47:33;1.00;;;0.97;;
9467;SDS011;4772;52.382;9.752;2023-04-24T03:49:59;2.90;;;1.20;;
9467;SDS011;4772;52.382;9.752;2023-04-24T03:52:25;1.07;;;1.00;;
9467;SDS011;4772;52.382;9.752;2023-04-24T03:54:51;3.33;;;1.20;;
9467;SDS011;4772;52.382;9.752;2023-04-24T03:57:17;1.20;;;1.10;;
9467;SDS011;4772;52.382;9.752;2023-04-24T03:59:43;1.10;;;1.10;;
9467;SDS011;4772;52.382;9.752;2023-04-24T04:02:09;1.20;;;1.10;;
9467;SDS011;4772;52.382;9.752;2023-04-24T04:04:35;0.90;;;0.90;;
9467;SDS011;4772;52.382;9.752;2023-04-24T04:07:01;1.77;;;1.07;;
9467;SDS011;4772;52.382;9.752;2023-04-24T04:09:28;1.87;;;1.10;;
9467;SDS011;4772;52.382;9.752;2023-04-24T04:11:54;0.90;;;0.90;;
9467;SDS011;4772;52.382;9.752;2023-04-24T04:14:20;1.97;;;1.00;;
9467;SDS011;4772;52.382;9.752;2023-04-24T04:16:46;2.03;;;1.10;;
9467;SDS011;4772;52.382;9.752;2023-04-24T04:19:12;2.30;;;0.90;;
9467;SDS011;4772;52.382;9.752;2023-04-24T04:21:38;2.33;;;1.50;;
9467;SDS011;4772;52.382;9.752;2023-04-24T04:24:04;1.13;;;1.13;;
9467;SDS011;4772;52.382;9.752;2023-04-24T04:26:30;0.97;;;0.97;;
9467;SDS011;4772;52.382;9.752;2023-04-24T04:28:57;1.23;;;1.10;;
9467;SDS011;4772;52.382;9.752;2023-04-24T04:31:23;1.20;;;1.10;;
9467;SDS011;4772;52.382;9.752;2023-04-24T04:33:49;1.57;;;1.20;;
9467;SDS011;4772;52.382;9.752;2023-04-24T04:36:15;1.20;;;1.10;;
9467;SDS011;4772;52.382;9.752;2023-04-24T04:38:43;0.90;;;0.90;;
9467;SDS011;4772;52.382;9.752;2023-04-24T04:41:09;1.23;;;1.03;;
9467;SDS011;4772;52.382;9.752;2023-04-24T04:43:35;1.20;;;1.10;;
9467;SDS011;4772;52.382;9.752;2023-04-24T04:46:03;1.00;;;0.90;;
9467;SDS011;4772;52.382;9.752;2023-04-24T04:48:29;1.20;;;1.10;;
9467;SDS011;4772;52.382;9.752;2023-04-24T04:50:56;2.20;;;1.00;;
9467;SDS011;4772;52.382;9.752;2023-04-24T04:53:22;1.67;;;1.00;;
9467;SDS011;4772;52.382;9.752;2023-04-24T04:55:48;1.10;;;1.00;;
9467;SDS011;4772;52.382;9.752;2023-04-24T04:58:14;1.17;;;1.10;;
9467;SDS011;4772;52.382;9.752;2023-04-24T05:00:40;2.00;;;1.10;;
9467;SDS011;4772;52.382;9.752;2023-04-24T05:03:07;1.20;;;1.10;;
9467;SDS011;4772;52.382;9.752;2023-04-24T05:05:33;0.90;;;0.90;;
9467;SDS011;4772;52.382;9.752;2023-04-24T05:07:59;2.53;;;1.07;;
9467;SDS011;4772;52.382;9.752;2023-04-24T05:10:25;1.20;;;1.10;;
9467;SDS011;4772;52.382;9.752;2023-04-24T05:12:51;2.23;;;1.30;;
9467;SDS011;4772;52.382;9.752;2023-04-24T05:15:17;1.30;;;1.20;;
9467;SDS011;4772;52.382;9.752;2023-04-24T05:17:43;1.20;;;1.10;;
9467;SDS011;4772;52.382;9.752;2023-04-24T05:20:09;1.20;;;1.10;;
9467;SDS011;4772;52.382;9.752;2023-04-24T05:22:35;1.20;;;1.10;;
9467;SDS011;4772;52.382;9.752;2023-04-24T05:25:01;1.17;;;1.00;;
9467;SDS011;4772;52.382;9.752;2023-04-24T05:27:28;1.43;;;1.00;;
9467;SDS011;4772;52.382;9.752;2023-04-24T05:29:54;1.30;;;1.20;;
9467;SDS011;4772;52.382;9.752;2023-04-24T05:32:20;1.20;;;1.10;;
9467;SDS011;4772;52.382;9.752;2023-04-24T05:34:46;1.80;;;1.00;;
9467;SDS011;4772;52.382;9.752;2023-04-24T05:37:12;1.20;;;1.10;;
9467;SDS011;4772;52.382;9.752;2023-04-24T05:39:38;1.20;;;1.10;;
9467;SDS011;4772;52.382;9.752;2023-04-24T05:42:06;1.63;;;1.20;;
9467;SDS011;4772;52.382;9.752;2023-04-24T05:44:32;2.17;;;1.20;;
9467;SDS011;4772;52.382;9.752;2023-04-24T05:46:58;2.47;;;1.17;;
9467;SDS011;4772;52.382;9.752;2023-04-24T05:49:24;1.20;;;1.10;;
9467;SDS011;4772;52.382;9.752;2023-04-24T05:51:50;2.10;;;1.20;;
9467;SDS011;4772;52.382;9.752;2023-04-24T05:54:16;2.40;;;1.30;;
9467;SDS011;4772;52.382;9.752;2023-04-24T05:56:42;1.53;;;1.40;;
9467;SDS011;4772;52.382;9.752;2023-04-24T05:59:08;3.10;;;1.50;;
9467;SDS011;4772;52.382;9.752;2023-04-24T06:01:34;2.33;;;1.50;;
9467;SDS011;4772;52.382;9.752;2023-04-24T06:04:01;2.03;;;1.40;;
9467;SDS011;4772;52.382;9.752;2023-04-24T06:06:27;1.60;;;1.50;;
9467;SDS011;4772;52.382;9.752;2023-04-24T06:08:54;4.13;;;1.63;;
9467;SDS011;4772;52.382;9.752;2023-04-24T06:11:20;1.57;;;1.47;;
9467;SDS011;4772;52.382;9.752;2023-04-24T06:13:47;1.90;;;1.53;;
9467;SDS011;4772;52.382;9.752;2023-04-24T06:16:13;1.77;;;1.57;;
9467;SDS011;4772;52.382;9.752;2023-04-24T06:18:39;1.50;;;1.40;;
9467;SDS011;4772;52.382;9.752;2023-04-24T06:21:05;1.20;;;1.10;;
9467;SDS011;4772;52.382;9.752;2023-04-24T06:23:31;2.47;;;1.33;;
9467;SDS011;4772;52.382;9.752;2023-04-24T06:25:58;2.20;;;1.40;;
9467;SDS011;4772;52.382;9.752;2023-04-24T06:28:24;3.90;;;1.40;;
9467;SDS011;4772;52.382;9.752;2023-04-24T06:30:50;2.77;;;1.70;;
9467;SDS011;4772;52.382;9.752;2023-04-24T06:33:16;3.50;;;1.77;;
9467;SDS011;4772;52.382;9.752;2023-04-24T06:35:42;1.73;;;1.63;;
9467;SDS011;4772;52.382;9.752;2023-04-24T06:38:08;2.67;;;1.63;;
9467;SDS011;4772;52.382;9.752;2023-04-24T06:40:34;2.43;;;1.70;;
9467;SDS011;4772;52.382;9.752;2023-04-24T06:43:00;2.47;;;1.83;;
9467;SDS011;4772;52.382;9.752;2023-04-24T06:45:27;2.73;;;1.80;;
9467;SDS011;4772;52.382;9.752;2023-04-24T06:47:54;2.13;;;1.93;;
9467;SDS011;4772;52.382;9.752;2023-04-24T06:50:20;2.73;;;2.20;;
9467;SDS011;4772;52.382;9.752;2023-04-24T06:52:46;2.50;;;2.23;;
9467;SDS011;4772;52.382;9.752;2023-04-24T06:55:12;2.70;;;2.50;;
9467;SDS011;4772;52.382;9.752;2023-04-24T06:57:40;3.40;;;2.67;;
9467;SDS011;4772;52.382;9.752;2023-04-24T07:00:06;3.13;;;2.70;;
9467;SDS011;4772;52.382;9.752;2023-04-24T07:02:34;3.70;;;3.40;;
9467;SDS011;4772;52.382;9.752;2023-04-24T07:05:00;4.07;;;3.37;;
9467;SDS011;4772;52.382;9.752;2023-04-24T07:07:26;3.67;;;3.30;;
9467;SDS011;4772;52.382;9.752;2023-04-24T07:09:53;3.63;;;3.30;;
9467;SDS011;4772;52.382;9.752;2023-04-24T07:12:19;3.77;;;3.47;;
9467;SDS011;4772;52.382;9.752;2023-04-24T07:14:46;5.47;;;3.60;;
9467;SDS011;4772;52.382;9.752;2023-04-24T07:17:12;4.60;;;3.80;;
9467;SDS011;4772;52.382;9.752;2023-04-24T07:19:39;3.90;;;3.60;;
9467;SDS011;4772;52.382;9.752;2023-04-24T07:22:05;4.83;;;4.03;;
9467;SDS011;4772;52.382;9.752;2023-04-24T07:24:31;5.10;;;3.83;;
9467;SDS011;4772;52.382;9.752;2023-04-24T07:26:57;4.37;;;3.97;;
9467;SDS011;4772;52.382;9.752;2023-04-24T07:29:24;5.07;;;4.17;;
9467;SDS011;4772;52.382;9.752;2023-04-24T07:31:50;4.77;;;3.97;;
9467;SDS011;4772;52.382;9.752;2023-04-24T07:34:16;5.33;;;4.60;;
9467;SDS011;4772;52.382;9.752;2023-04-24T07:36:42;5.00;;;4.20;;
9467;SDS011;4772;52.382;9.752;2023-04-24T07:39:08;4.97;;;3.90;;
9467;SDS011;4772;52.382;9.752;2023-04-24T07:41:34;5.20;;;4.20;;
9467;SDS011;4772;52.382;9.752;2023-04-24T07:44:00;7.00;;;4.00;;
9467;SDS011;4772;52.382;9.752;2023-04-24T07:46:26;5.57;;;4.10;;
9467;SDS011;4772;52.382;9.752;2023-04-24T07:48:54;5.67;;;3.90;;
9467;SDS011;4772;52.382;9.752;2023-04-24T07:51:20;4.30;;;3.83;;
9467;SDS011;4772;52.382;9.752;2023-04-24T07:53:46;5.90;;;4.20;;
9467;SDS011;4772;52.382;9.752;2023-04-24T07:56:12;5.10;;;4.60;;
9467;SDS011;4772;52.382;9.752;2023-04-24T07:58:38;8.20;;;4.90;;
9467;SDS011;4772;52.382;9.752;2023-04-24T08:01:05;7.03;;;5.43;;
9467;SDS011;4772;52.382;9.752;2023-04-24T08:03:31;8.60;;;5.47;;
9467;SDS011;4772;52.382;9.752;2023-04-24T08:05:57;6.50;;;5.60;;
9467;SDS011;4772;52.382;9.752;2023-04-24T08:08:23;7.40;;;6.13;;
9467;SDS011;4772;52.382;9.752;2023-04-24T08:10:49;6.40;;;5.80;;
9467;SDS011;4772;52.382;9.752;2023-04-24T08:13:15;7.23;;;5.97;;
9467;SDS011;4772;52.382;9.752;2023-04-24T08:15:41;7.77;;;6.17;;
9467;SDS011;4772;52.382;9.752;2023-04-24T08:18:07;6.53;;;5.87;;
9467;SDS011;4772;52.382;9.752;2023-04-24T08:20:33;8.30;;;6.03;;
9467;SDS011;4772;52.382;9.752;2023-04-24T08:23:00;7.33;;;6.17;;
9467;SDS011;4772;52.382;9.752;2023-04-24T08:25:26;7.27;;;6.00;;
9467;SDS011;4772;52.382;9.752;2023-04-24T08:27:52;7.10;;;6.40;;
9467;SDS011;4772;52.382;9.752;2023-04-24T08:30:18;8.17;;;5.77;;
9467;SDS011;4772;52.382;9.752;2023-04-24T08:32:44;6.83;;;5.73;;
9467;SDS011;4772;52.382;9.752;2023-04-24T08:35:10;8.10;;;5.90;;
9467;SDS011;4772;52.382;9.752;2023-04-24T08:37:36;5.90;;;5.30;;
9467;SDS011;4772;52.382;9.752;2023-04-24T08:40:06;6.07;;;5.27;;
9467;SDS011;4772;52.382;9.752;2023-04-24T08:42:33;5.70;;;5.20;;
9467;SDS011;4772;52.382;9.752;2023-04-24T08:45:00;7.07;;;5.80;;
9467;SDS011;4772;52.382;9.752;2023-04-24T08:47:27;5.57;;;4.90;;
9467;SDS011;4772;52.382;9.752;2023-04-24T08:49:54;7.47;;;5.40;;
9467;SDS011;4772;52.382;9.752;2023-04-24T08:52:21;5.17;;;4.60;;
9467;SDS011;4772;52.382;9.752;2023-04-24T08:54:47;7.50;;;5.30;;
9467;SDS011;4772;52.382;9.752;2023-04-24T08:57:14;5.40;;;4.90;;
9467;SDS011;4772;52.382;9.752;2023-04-24T08:59:40;5.10;;;4.60;;
9467;SDS011;4772;52.382;9.752;2023-04-24T09:02:06;4.67;;;4.10;;
9467;SDS011;4772;52.382;9.752;2023-04-24T09:04:35;4.10;;;3.57;;
9467;SDS011;4772;52.382;9.752;2023-04-24T09:07:01;4.17;;;3.60;;
9467;SDS011;4772;52.382;9.752;2023-04-24T09:09:28;3.60;;;3.20;;
9467;SDS011;4772;52.382;9.752;2023-04-24T09:11:56;3.83;;;3.17;;
9467;SDS011;4772;52.382;9.752;2023-04-24T09:14:23;2.87;;;2.57;;
9467;SDS011;4772;52.382;9.752;2023-04-24T09:16:49;3.20;;;2.90;;
9467;SDS011;4772;52.382;9.752;2023-04-24T09:19:15;3.00;;;2.70;;
9467;SDS011;4772;52.382;9.752;2023-04-24T09:21:41;3.90;;;3.00;;
9467;SDS011;4772;52.382;9.752;2023-04-24T09:24:17;4.10;;;3.30;;
9467;SDS011;4772;52.382;9.752;2023-04-24T09:26:45;3.10;;;2.80;;
9467;SDS011;4772;52.382;9.752;2023-04-24T09:29:17;6.03;;;3.43;;
9467;SDS011;4772;52.382;9.752;2023-04-24T09:31:44;5.53;;;3.33;;
9467;SDS011;4772;52.382;9.752;2023-04-24T09:34:11;4.03;;;3.20;;
9467;SDS011;4772;52.382;9.752;2023-04-24T09:36:41;3.77;;;3.33;;
9467;SDS011;4772;52.382;9.752;2023-04-24T09:39:08;6.23;;;3.13;;
9467;SDS011;4772;52.382;9.752;2023-04-24T09:41:43;3.40;;;3.10;;
9467;SDS011;4772;52.382;9.752;2023-04-24T09:44:13;4.13;;;3.30;;
9467;SDS011;4772;52.382;9.752;2023-04-24T09:46:40;5.30;;;3.30;;
9467;SDS011;4772;52.382;9.752;2023-04-24T09:49:13;3.73;;;3.43;;
9467;SDS011;4772;52.382;9.752;2023-04-24T09:51:40;3.53;;;3.17;;
9467;SDS011;4772;52.382;9.752;2023-04-24T09:54:27;3.50;;;3.17;;
9467;SDS011;4772;52.382;9.752;2023-04-24T09:56:52;3.30;;;2.90;;
9467;SDS011;4772;52.382;9.752;2023-04-24T09:59:20;4.50;;;3.13;;
9467;SDS011;4772;52.382;9.752;2023-04-24T10:01:46;3.50;;;3.20;;
9467;SDS011;4772;52.382;9.752;2023-04-24T10:04:18;3.57;;;3.20;;
9467;SDS011;4772;52.382;9.752;2023-04-24T10:06:44;3.50;;;3.20;;
9467;SDS011;4772;52.382;9.752;2023-04-24T10:09:10;4.27;;;3.10;;
9467;SDS011;4772;52.382;9.752;2023-04-24T10:11:37;4.47;;;3.23;;
9467;SDS011;4772;52.382;9.752;2023-04-24T10:14:06;3.57;;;3.07;;
9467;SDS011;4772;52.382;9.752;2023-04-24T10:16:35;3.03;;;2.73;;
9467;SDS011;4772;52.382;9.752;2023-04-24T10:19:02;3.03;;;2.83;;
9467;SDS011;4772;52.382;9.752;2023-04-24T10:21:28;3.77;;;3.20;;
9467;SDS011;4772;52.382;9.752;2023-04-24T10:23:55;4.53;;;3.30;;
9467;SDS011;4772;52.382;9.752;2023-04-24T10:26:21;3.30;;;3.00;;
9467;SDS011;4772;52.382;9.752;2023-04-24T10:28:47;3.23;;;2.90;;
9467;SDS011;4772;52.382;9.752;2023-04-24T10:31:14;3.53;;;2.80;;
9467;SDS011;4772;52.382;9.752;2023-04-24T10:33:41;6.33;;;2.60;;
9467;SDS011;4772;52.382;9.752;2023-04-24T10:36:08;3.80;;;3.13;;
9467;SDS011;4772;52.382;9.752;2023-04-24T10:38:35;2.80;;;2.60;;
9467;SDS011;4772;52.382;9.752;2023-04-24T10:41:11;3.50;;;2.80;;
9467;SDS011;4772;52.382;9.752;2023-04-24T10:43:48;3.97;;;2.50;;
9467;SDS011;4772;52.382;9.752;2023-04-24T10:46:29;4.03;;;2.63;;
9467;SDS011;4772;52.382;9.752;2023-04-24T10:48:55;2.63;;;2.43;;
9467;SDS011;4772;52.382;9.752;2023-04-24T10:51:23;4.30;;;3.90;;
9467;SDS011;4772;52.382;9.752;2023-04-24T10:53:50;3.50;;;2.60;;
9467;SDS011;4772;52.382;9.752;2023-04-24T10:56:17;3.33;;;2.70;;
9467;SDS011;4772;52.382;9.752;2023-04-24T10:58:44;2.83;;;2.60;;
9467;SDS011;4772;52.382;9.752;2023-04-24T11:04:12;2.40;;;2.20;;
9467;SDS011;4772;52.382;9.752;2023-04-24T11:06:38;3.23;;;2.70;;
9467;SDS011;4772;52.382;9.752;2023-04-24T11:09:09;2.63;;;2.40;;
9467;SDS011;4772;52.382;9.752;2023-04-24T11:11:37;3.73;;;2.53;;
9467;SDS011;4772;52.382;9.752;2023-04-24T11:14:06;3.77;;;2.63;;
9467;SDS011;4772;52.382;9.752;2023-04-24T11:16:33;3.50;;;2.60;;
9467;SDS011;4772;52.382;9.752;2023-04-24T11:19:01;2.63;;;2.43;;
9467;SDS011;4772;52.382;9.752;2023-04-24T11:24:18;2.60;;;2.40;;
9467;SDS011;4772;52.382;9.752;2023-04-24T11:26:45;2.00;;;1.90;;
9467;SDS011;4772;52.382;9.752;2023-04-24T11:29:11;2.97;;;2.30;;
9467;SDS011;4772;52.382;9.752;2023-04-24T11:31:37;2.63;;;1.93;;
9467;SDS011;4772;52.382;9.752;2023-04-24T11:34:11;3.63;;;1.77;;
9467;SDS011;4772;52.382;9.752;2023-04-24T11:36:37;2.20;;;1.80;;
9467;SDS011;4772;52.382;9.752;2023-04-24T11:39:04;1.70;;;1.60;;
9467;SDS011;4772;52.382;9.752;2023-04-24T11:41:30;5.13;;;1.80;;
9467;SDS011;4772;52.382;9.752;2023-04-24T11:43:56;1.70;;;1.60;;
9467;SDS011;4772;52.382;9.752;2023-04-24T11:46:22;2.27;;;1.57;;
9467;SDS011;4772;52.382;9.752;2023-04-24T11:48:48;1.60;;;1.50;;
9467;SDS011;4772;52.382;9.752;2023-04-24T11:51:14;2.07;;;1.87;;
9467;SDS011;4772;52.382;9.752;2023-04-24T11:53:40;2.53;;;1.40;;
9467;SDS011;4772;52.382;9.752;2023-04-24T11:56:08;1.70;;;1.60;;
9467;SDS011;4772;52.382;9.752;2023-04-24T11:58:35;1.60;;;1.50;;
9467;SDS011;4772;52.382;9.752;2023-04-24T12:01:01;1.63;;;1.53;;
9467;SDS011;4772;52.382;9.752;2023-04-24T12:03:27;1.73;;;1.50;;
9467;SDS011;4772;52.382;9.752;2023-04-24T12:06:04;2.20;;;1.60;;
9467;SDS011;4772;52.382;9.752;2023-04-24T12:08:31;2.00;;;1.90;;
9467;SDS011;4772;52.382;9.752;2023-04-24T12:10:57;1.60;;;1.50;;
9467;SDS011;4772;52.382;9.752;2023-04-24T12:13:25;1.73;;;1.60;;
9467;SDS011;4772;52.382;9.752;2023-04-24T12:15:51;2.13;;;1.30;;
9467;SDS011;4772;52.382;9.752;2023-04-24T12:18:17;4.33;;;1.10;;
9467;SDS011;4772;52.382;9.752;2023-04-24T12:20:43;1.27;;;1.17;;
9467;SDS011;4772;52.382;9.752;2023-04-24T12:23:09;1.10;;;1.00;;
9467;SDS011;4772;52.382;9.752;2023-04-24T12:25:35;1.30;;;1.20;;
9467;SDS011;4772;52.382;9.752;2023-04-24T12:30:31;1.10;;;1.00;;
9467;SDS011;4772;52.382;9.752;2023-04-24T12:32:58;1.20;;;1.10;;
9467;SDS011;4772;52.382;9.752;2023-04-24T12:35:26;1.10;;;1.10;;
9467;SDS011;4772;52.382;9.752;2023-04-24T12:37:52;1.40;;;1.30;;
9467;SDS011;4772;52.382;9.752;2023-04-24T12:40:19;1.30;;;1.20;;
9467;SDS011;4772;52.382;9.752;2023-04-24T12:42:46;1.63;;;1.30;;
9467;SDS011;4772;52.382;9.752;2023-04-24T12:45:15;1.00;;;1.00;;
9467;SDS011;4772;52.382;9.752;2023-04-24T12:47:42;1.03;;;1.03;;
9467;SDS011;4772;52.382;9.752;2023-04-24T12:50:12;1.27;;;1.17;;
9467;SDS011;4772;52.382;9.752;2023-04-24T12:52:39;2.07;;;1.53;;
9467;SDS011;4772;52.382;9.752;2023-04-24T12:55:05;3.03;;;1.80;;
9467;SDS011;4772;52.382;9.752;2023-04-24T12:57:33;2.23;;;1.80;;
9467;SDS011;4772;52.382;9.752;2023-04-24T13:00:00;1.43;;;1.33;;
9467;SDS011;4772;52.382;9.752;2023-04-24T13:02:29;1.53;;;1.27;;
9467;SDS011;4772;52.382;9.752;2023-04-24T13:04:56;1.97;;;1.40;;
9467;SDS011;4772;52.382;9.752;2023-04-24T13:07:22;3.93;;;1.37;;
9467;SDS011;4772;52.382;9.752;2023-04-24T13:09:48;1.80;;;1.70;;
9467;SDS011;4772;52.382;9.752;2023-04-24T13:12:14;2.77;;;1.63;;
9467;SDS011;4772;52.382;9.752;2023-04-24T13:14:41;1.80;;;1.47;;
9467;SDS011;4772;52.382;9.752;2023-04-24T13:17:07;2.03;;;1.70;;
9467;SDS011;4772;52.382;9.752;2023-04-24T13:19:37;2.00;;;1.80;;
9467;SDS011;4772;52.382;9.752;2023-04-24T13:22:03;3.57;;;1.80;;
9467;SDS011;4772;52.382;9.752;2023-04-24T13:24:30;2.10;;;1.90;;
9467;SDS011;4772;52.382;9.752;2023-04-24T13:26:56;1.93;;;1.43;;
9467;SDS011;4772;52.382;9.752;2023-04-24T13:29:22;5.37;;;1.40;;
9467;SDS011;4772;52.382;9.752;2023-04-24T13:31:52;1.57;;;1.47;;
9467;SDS011;4772;52.382;9.752;2023-04-24T13:34:21;1.83;;;1.73;;
9467;SDS011;4772;52.382;9.752;2023-04-24T13:36:47;1.87;;;1.37;;
9467;SDS011;4772;52.382;9.752;2023-04-24T13:39:13;2.00;;;1.53;;
9467;SDS011;4772;52.382;9.752;2023-04-24T13:41:39;1.60;;;1.50;;
9467;SDS011;4772;52.382;9.752;2023-04-24T13:44:05;1.47;;;1.37;;
9467;SDS011;4772;52.382;9.752;2023-04-24T13:46:31;1.47;;;1.37;;
9467;SDS011;4772;52.382;9.752;2023-04-24T13:48:57;1.47;;;1.37;;
9467;SDS011;4772;52.382;9.752;2023-04-24T13:51:24;1.40;;;1.30;;
9467;SDS011;4772;52.382;9.752;2023-04-24T13:53:52;2.00;;;1.13;;
9467;SDS011;4772;52.382;9.752;2023-04-24T13:56:18;1.53;;;1.00;;
9467;SDS011;4772;52.382;9.752;2023-04-24T13:58:44;1.70;;;1.60;;
9467;SDS011;4772;52.382;9.752;2023-04-24T14:01:10;1.80;;;1.43;;
9467;SDS011;4772;52.382;9.752;2023-04-24T14:03:37;0.80;;;0.80;;
9467;SDS011;4772;52.382;9.752;2023-04-24T14:06:03;1.77;;;1.00;;
9467;SDS011;4772;52.382;9.752;2023-04-24T14:08:29;0.70;;;0.70;;
9467;SDS011;4772;52.382;9.752;2023-04-24T14:10:55;1.00;;;1.00;;
9467;SDS011;4772;52.382;9.752;2023-04-24T14:13:21;1.40;;;1.10;;
9467;SDS011;4772;52.382;9.752;2023-04-24T14:15:47;1.50;;;1.10;;
9467;SDS011;4772;52.382;9.752;2023-04-24T14:18:13;2.13;;;1.40;;
9467;SDS011;4772;52.382;9.752;2023-04-24T14:20:39;1.50;;;1.40;;
9467;SDS011;4772;52.382;9.752;2023-04-24T14:23:05;4.23;;;1.93;;
9467;SDS011;4772;52.382;9.752;2023-04-24T14:25:31;3.57;;;1.50;;
9467;SDS011;4772;52.382;9.752;2023-04-24T14:27:57;1.87;;;1.37;;
9467;SDS011;4772;52.382;9.752;2023-04-24T14:30:23;3.03;;;1.93;;
9467;SDS011;4772;52.382;9.752;2023-04-24T14:32:49;3.60;;;2.57;;
9467;SDS011;4772;52.382;9.752;2023-04-24T14:35:15;2.33;;;2.13;;
9467;SDS011;4772;52.382;9.752;2023-04-24T14:37:41;2.73;;;2.50;;
9467;SDS011;4772;52.382;9.752;2023-04-24T14:40:07;2.80;;;2.13;;
9467;SDS011;4772;52.382;9.752;2023-04-24T14:42:34;3.63;;;2.50;;
9467;SDS011;4772;52.382;9.752;2023-04-24T14:45:00;3.80;;;2.50;;
9467;SDS011;4772;52.382;9.752;2023-04-24T14:47:27;2.87;;;2.30;;
9467;SDS011;4772;52.382;9.752;2023-04-24T14:49:54;3.53;;;2.23;;
9467;SDS011;4772;52.382;9.752;2023-04-24T14:52:20;3.33;;;2.37;;
9467;SDS011;4772;52.382;9.752;2023-04-24T14:54:46;3.37;;;2.40;;
9467;SDS011;4772;52.382;9.752;2023-04-24T14:57:12;3.87;;;2.40;;
9467;SDS011;4772;52.382;9.752;2023-04-24T14:59:38;3.93;;;2.50;;
9467;SDS011;4772;52.382;9.752;2023-04-24T15:02:04;5.87;;;2.80;;
9467;SDS011;4772;52.382;9.752;2023-04-24T15:04:31;5.83;;;2.90;;
9467;SDS011;4772;52.382;9.752;2023-04-24T15:06:57;4.77;;;2.77;;
9467;SDS011;4772;52.382;9.752;2023-04-24T15:09:23;6.27;;;3.03;;
9467;SDS011;4772;52.382;9.752;2023-04-24T15:11:50;6.90;;;3.53;;
9467;SDS011;4772;52.382;9.752;2023-04-24T15:14:16;4.33;;;3.20;;
9467;SDS011;4772;52.382;9.752;2023-04-24T15:16:43;4.77;;;3.30;;
9467;SDS011;4772;52.382;9.752;2023-04-24T15:19:09;4.47;;;3.17;;